Tiempo atmosférico en la estación meteorológica de Fuencaliente, Ciudad Real (640 m.)



Fecha
DESCASC
Temp. máxima en grados centígrados (hora)
DESCASC
Temp. mínima en grados centígrados (hora)
DESCASC
Temp. media en grados centígrados
DESCASC
Racha de viento máxima en m/sg (hora)
DESCASC
Velocidad máxima media en intervalos de 10 minutos(hora)
DESCASC
Precipitaciones diarias en mm
DESCASC
Precipitaciones de 00:00 a 06:00 en mm
DESCASC
Precipitaciones de 06:00 a 12:00 en mm
DESCASC
Precipitaciones de 12:00 a 18:00 en mm
DESCASC
Precipitaciones de 18:00 a 24:00 en mm
DESCASC
18-01-2018 17.2 (14:40) 4.6 (09:20) 10.9 10 (05:40) 4.44 (05:20) 0 0 0 0 0
17-01-2018 15.6 (13:40) 1.2 (03:40) 8.4 12.5 (20:20) 6.39 (19:40) 0 0 0 0 0
16-01-2018 14.1 (16:10) -0.9 (08:00) 6.6 5 (16:30) 2.78 (16:30) 0.6 0 0.4 0.2 0
15-01-2018 10.2 (16:20) -0.3 (23:59) 4.9 6.94 (12:10) 3.33 (11:30) 0.4 0.2 0 0.2 0
14-01-2018 6 (15:50) 2.5 (00:00) 4.3 4.17 (02:30) 2.22 (05:40) 4.8 0.4 1.2 3 0.2
13-01-2018 7.3 (13:10) -0.1 (00:00) 3.6 12.78 (17:40) 4.72 (14:10) 3 0 0 2.6 0.4
12-01-2018 11.8 (16:10) -2.1 (-00:0) 4.9 4.72 (05:00) 2.22 (13:30) 0.2 0 0.2 0 0
11-01-2018 9.3 (14:50) 0.5 (00:00) 4.9 9.17 (14:40) 3.61 (15:10) 0.8 0.4 0.2 0.2 0
10-01-2018 10.3 (15:10) 6 (00:00) 8.2 10.28 (20:00) 4.17 (15:50) 5 2 0.8 0.4 1.8
09-01-2018 6 (23:50) -2.7 (-00:0) 1.6 5.28 (19:10) 2.5 (13:20) 4.2 0 0 0 4.2
08-01-2018 8.8 (14:10) -0.8 (-00:0) 4 5.83 (13:10) 2.78 (13:10) 0.6 0.4 0.2 0 0
07-01-2018 1.8 (16:50) -1.1 (-00:0) 0.3 4.44 (15:40) 1.94 (15:40) 1.2 0.2 0.2 0.2 0.6
06-01-2018 7.9 (00:00) 0.8 (00:00) 4.4 7.5 (04:00) 3.33 (04:00) 26.2 17.6 6.4 1.6 0.6
05-01-2018 10.4 (14:30) 7.9 (00:00) 9.1 13.06 (10:40) 5.56 (11:00) 1.2 0 0 0 1.2
04-01-2018 13 (13:40) 8.7 (02:20) 10.8 5.83 (13:30) 3.61 (13:30) 0 0 0 0 0
03-01-2018 12 (16:00) 6.8 (00:00) 9.4 5.28 (16:20) 2.5 (16:30) 0 0 0 0 0
02-01-2018 13.8 (15:50) 1.3 (00:00) 7.6 5.28 (14:00) 2.78 (13:50) 0 0 0 0 0
01-01-2018 12.7 (15:10) -0.6 (-00:0) 6 6.67 (14:40) 3.61 (14:40) 1 0.2 0.8 0 0
31-12-2017 11.2 (16:30) 4.3 (00:00) 7.8 10.83 (14:30) 4.17 (14:40) 2 0 0.2 0.4 1.4
30-12-2017 16.4 (15:30) 5.1 (00:00) 10.7 3.61 (11:30) 2.22 (11:30) 0.8 0.2 0.2 0.2 0.2
29-12-2017 13.7 (14:30) 10.5 (00:00) 12.1 6.11 (09:20) 3.06 (14:40) 1.4 0.4 0.4 0.4 0.2
28-12-2017 13.2 (12:40) 6 (00:00) 9.6 8.89 (15:00) 3.89 (19:10) 12.8 3.8 4 4.4 0.6
27-12-2017 10.2 (13:20) 4.8 (00:00) 7.5 12.5 (06:00) 4.72 (05:50) 19.2 16.4 2.4 0.4 0
26-12-2017 8.3 (06:20) 4.3 (00:00) 6.3 7.78 (01:10) 3.33 (11:40) 5.8 2.4 2.2 0.2 1
25-12-2017 8.6 (12:20) 1.3 (00:00) 5 6.67 (21:20) 2.22 (21:20) 0.2 0 0 0.2 0
24-12-2017 14.4 (15:00) 1 (00:00) 7.7 5.28 (12:50) 3.06 (11:40) 0 0 0 0 0
23-12-2017 15.4 (15:30) 2.2 (00:00) 8.8 4.72 (14:00) 2.5 (09:00) 0 0 0 0 0
22-12-2017 17.3 (16:00) 1 (00:00) 9.1 4.72 (15:20) 2.5 (15:20) 0 0 0 0 0

Gráficas

Temp. máximas Temp. mínimas Temp. medias Precipitaciones Rachas de viento máximas Velocidades máximas media en intervalos de 10 minutos

Datos horarios

Fecha y hora oficial Temperatura (ºC) Velocidad del viento (km/h) Dirección del viento Racha (km/h) Dirección de racha Precipitación (mm) Presión (hPa) Tendencia (hPa) Humedad (%)
2018-01-20 23:00:00 4.1 0 Calma 2 Nordeste 0 -- -- 69
2018-01-20 22:00:00 5.4 2 Este 6 Norte 0 -- -- 61
2018-01-20 21:00:00 8.2 4 Norte 7 Noroeste 0 -- -- 43
2018-01-20 20:00:00 7.7 0 Calma 6 Nordeste 0 -- -- 58
2018-01-20 19:00:00 8.8 0 Calma 5 Sudoeste 0 -- -- 59
2018-01-20 18:00:00 13.8 4 Sudoeste 17 Oeste 0 -- -- 39
2018-01-20 17:00:00 16.6 6 Oeste 21 Oeste 0 -- -- 33
2018-01-20 16:00:00 16.6 9 Oeste 19 Sudoeste 0 -- -- 35
2018-01-20 15:00:00 16.3 8 Sur 19 Sudoeste 0 -- -- 46
2018-01-20 14:00:00 15.6 10 Sudoeste 18 Sudoeste 0 -- -- 48
2018-01-20 13:00:00 13.9 6 Sudeste 11 Sur 0 -- -- 55
2018-01-20 12:00:00 13.5 5 Sur 7 Sur 0 -- -- 54
2018-01-20 11:00:00 9.8 0 Calma 3 Nordeste 0 -- -- 78
2018-01-20 10:00:00 4 0 Calma 2 Sudoeste 0 -- -- 92
2018-01-20 09:00:00 1.5 0 Calma 2 Nordeste 0 -- -- 93
2018-01-20 08:00:00 1.5 0 Calma 5 Este 0 -- -- 94
2018-01-20 07:00:00 1.3 0 Calma 5 Noroeste 0 -- -- 92
2018-01-20 06:00:00 1.6 0 Calma 3 Este 0 -- -- 93
2018-01-20 05:00:00 1.9 0 Calma 4 Nordeste 0 -- -- 89
2018-01-20 04:00:00 2.5 2 Nordeste 5 Nordeste 0 -- -- 90
2018-01-20 03:00:00 2.7 0 Calma 3 Este 0 -- -- 91
2018-01-20 02:00:00 2.9 0 Calma 4 Norte 0 -- -- 89
2018-01-20 01:00:00 3.9 0 Calma 4 Nordeste 0 -- -- 88
2018-01-20 00:00:00 5 0 Calma 12 Norte 0 -- -- 80
2018-01-19 23:00:00 8.3 9 Norte 14 Norte 0 -- -- 71
2018-01-19 22:00:00 7.6 3 Norte 8 Oeste 0 -- -- 75
2018-01-19 21:00:00 7.7 5 Noroeste 9 Noroeste 0 -- -- 76
2018-01-19 20:00:00 7.1 2 Nordeste 8 Noroeste 0 -- -- 74
2018-01-19 19:00:00 10.2 4 Noroeste 13 Norte 0 -- -- 62
2018-01-19 18:00:00 13.8 6 Nordeste 11 Noroeste 0 -- -- 49
2018-01-19 17:00:00 16.3 5 Nordeste 19 Nordeste 0 -- -- 41
2018-01-19 16:00:00 16.7 6 Nordeste 18 Nordeste 0 -- -- 40
2018-01-19 15:00:00 16.1 11 Este 34 Este 0 -- -- 39
2018-01-19 14:00:00 16.4 8 Nordeste 22 Este 0 -- -- 41
2018-01-19 13:00:00 16.5 8 Este 16 Este 0 -- -- 39
2018-01-19 12:00:00 14 8 Sudeste 18 Este 0 -- -- 52
2018-01-19 11:00:00 11.8 3 Noroeste 18 Norte 0 -- -- 55
2018-01-19 10:00:00 9.5 6 Norte 16 Norte 0 -- -- 63
2018-01-19 09:00:00 8.1 6 Norte 13 Noroeste 0 -- -- 67
2018-01-19 08:00:00 8.5 7 Norte 16 Norte 0 -- -- 65
2018-01-19 07:00:00 7.1 3 Nordeste 12 Nordeste 0 -- -- 73
2018-01-19 06:00:00 8.5 2 Oeste 17 Noroeste 0 -- -- 66
2018-01-19 05:00:00 9.1 7 Norte 17 Nordeste 0 -- -- 62
2018-01-19 04:00:00 9.4 8 Noroeste 17 Noroeste 0 -- -- 62
2018-01-19 03:00:00 9.9 5 Norte 21 Norte 0 -- -- 61
2018-01-19 02:00:00 9.5 4 Noroeste 21 Nordeste 0 -- -- 66
2018-01-19 01:00:00 9.2 5 Norte 14 Oeste 0 -- -- 68
2018-01-19 00:00:00 9.1 6 Norte 18 Noroeste 0 -- -- 64
2018-01-18 23:00:00 7.5 6 Norte 12 Norte 0 -- -- 66
2018-01-18 22:00:00 7.1 9 Norte 16 Norte 0 -- -- 72
2018-01-18 21:00:00 6.4 4 Nordeste 13 Norte 0 -- -- 78
2018-01-18 20:00:00 7 3 Norte 10 Norte 0 -- -- 76
2018-01-18 19:00:00 7.9 0 Calma 5 Nordeste 0 -- -- 74
2018-01-18 18:00:00 11.4 2 Nordeste 6 Oeste 0 -- -- 62
2018-01-18 17:00:00 15.5 5 Oeste 10 Sudoeste 0 -- -- 42
2018-01-18 16:00:00 15.9 5 Sur 11 Sur 0 -- -- 43
2018-01-18 15:00:00 16.4 4 Sur 10 Sur 0 -- -- 44
2018-01-18 14:00:00 15.9 3 Sur 13 Sur 0 -- -- 44
2018-01-18 13:00:00 15.2 7 Sur 12 Sudeste 0 -- -- 46
2018-01-18 12:00:00 14.1 5 Sur 9 Sur 0 -- -- 48
2018-01-18 11:00:00 12.5 6 Sudeste 15 Sudeste 0 -- -- 44
2018-01-18 10:00:00 10.6 7 Noroeste 15 Norte 0 -- -- 48
2018-01-18 09:00:00 6.1 0 Calma 17 Noroeste 0 -- -- 59
2018-01-18 08:00:00 9.1 5 Norte 19 Nordeste 0 -- -- 46
2018-01-18 07:00:00 9.2 7 Noroeste 26 Norte 0 -- -- 49
2018-01-18 06:00:00 10.5 7 Nordeste 36 Nordeste 0 -- -- 44
2018-01-18 05:00:00 10.4 11 Nordeste 28 Nordeste 0 -- -- 49
2018-01-18 04:00:00 10 13 Nordeste 33 Nordeste 0 -- -- 50
2018-01-18 03:00:00 9.5 12 Nordeste 27 Nordeste 0 -- -- 53
2018-01-18 02:00:00 9.8 12 Nordeste 31 Este 0 -- -- 52
2018-01-18 01:00:00 10 7 Nordeste 23 Nordeste 0 -- -- 54
2018-01-18 00:00:00 10.7 8 Noroeste 41 Norte 0 -- -- 49
2018-01-17 23:00:00 10.4 8 Nordeste 24 Nordeste 0 -- -- 46
2018-01-17 22:00:00 11.4 10 Nordeste 40 Este 0 -- -- 42
2018-01-17 21:00:00 11.8 19 Nordeste 45 Este 0 -- -- 43
2018-01-17 20:00:00 11.6 22 Nordeste 42 Nordeste 0 -- -- 47
2018-01-17 19:00:00 11.9 20 Nordeste 36 Nordeste 0 -- -- 47
2018-01-17 18:00:00 12.4 9 Norte 36 Nordeste 0 -- -- 55
2018-01-17 17:00:00 14.3 14 Nordeste 34 Este 0 -- -- 52
2018-01-17 16:00:00 14.8 16 Nordeste 33 Este 0 -- -- 50
2018-01-17 15:00:00 15.3 10 Nordeste 27 Nordeste 0 -- -- 52
2018-01-17 14:00:00 15.2 15 Nordeste 27 Nordeste 0 -- -- 51
2018-01-17 13:00:00 14.7 8 Nordeste 31 Nordeste 0 -- -- 52
2018-01-17 12:00:00 13.2 13 Nordeste 29 Este 0 -- -- 54
2018-01-17 11:00:00 9.9 7 Noroeste 14 Norte 0 -- -- 82
2018-01-17 10:00:00 6.7 6 Norte 16 Noroeste 0 -- -- 95
2018-01-17 09:00:00 4.3 5 Norte 13 Norte 0 -- -- 97
2018-01-17 08:00:00 3.9 8 Norte 17 Noroeste 0 -- -- 97
2018-01-17 07:00:00 3.9 0 Calma 4 Oeste 0 -- -- 97
2018-01-17 06:00:00 4 2 Este 19 Noroeste 0 -- -- 95
2018-01-17 05:00:00 6.1 12 Noroeste 20 Noroeste 0 -- -- 98
2018-01-17 04:00:00 1.3 0 Calma 4 Nordeste 0 -- -- 96
2018-01-17 03:00:00 1.9 0 Calma 4 Nordeste 0 -- -- 96
2018-01-17 02:00:00 2 2 Nordeste 5 Nordeste 0 -- -- 95
2018-01-17 01:00:00 3 0 Calma 5 Sudoeste 0 -- -- 92
2018-01-17 00:00:00 4.3 4 Norte 8 Norte 0 -- -- 92
2018-01-16 23:00:00 6.2 3 Nordeste 12 Nordeste 0 -- -- 86
2018-01-16 22:00:00 6.3 4 Norte 12 Oeste 0 -- -- 90
2018-01-16 21:00:00 5.6 2 Nordeste 8 Norte 0 -- -- 87
2018-01-16 20:00:00 6.7 0 Calma 9 Noroeste 0 -- -- 82
2018-01-16 19:00:00 8.2 2 Nordeste 7 Nordeste 0 -- -- 74
2018-01-16 18:00:00 11.2 3 Norte 14 Sudoeste 0 -- -- 62
2018-01-16 17:00:00 13.6 7 Sudoeste 18 Sudoeste 0 -- -- 53
2018-01-16 16:00:00 14 7 Sudoeste 16 Sudoeste 0 -- -- 56
2018-01-16 15:00:00 13.3 6 Sudoeste 15 Sudeste 0 -- -- 56
2018-01-16 14:00:00 12.5 7 Sudeste 13 Sudeste 0.2 -- -- 53
2018-01-16 13:00:00 11.3 3 Sur 9 Sur 0 -- -- 59
2018-01-16 12:00:00 9.2 4 Sur 9 Sur 0 -- -- 68
2018-01-16 11:00:00 7.2 2 Sur 4 Sudeste 0.4 -- -- 76
2018-01-16 10:00:00 2.3 0 Calma 3 Este 0 -- -- 95
2018-01-16 09:00:00 -0.7 0 Calma 2 Nordeste 0 -- -- 96
2018-01-16 08:00:00 -0.9 0 Calma 3 Nordeste 0 -- -- 95
2018-01-16 07:00:00 -0.3 0 Calma 3 Este 0 -- -- 97
2018-01-16 06:00:00 -0.6 0 Calma 3 Nordeste 0 -- -- 96
2018-01-16 05:00:00 -0.6 0 Calma 4 Nordeste 0 -- -- 95
2018-01-16 04:00:00 -0.3 0 Calma 4 Este 0 -- -- 96
2018-01-16 03:00:00 -0.5 0 Calma 3 Este 0 -- -- 95
2018-01-16 02:00:00 -0.5 0 Calma 2 Nordeste 0 -- -- 95
2018-01-16 01:00:00 -0.4 0 Calma 3 Oeste 0 -- -- 94
2018-01-16 00:00:00 -0.3 0 Calma 4 Nordeste 0 -- -- 93
2018-01-15 23:00:00 0.3 0 Calma 5 Nordeste 0 -- -- 92
2018-01-15 22:00:00 0.8 0 Calma 5 Norte 0 -- -- 90
2018-01-15 21:00:00 1.8 0 Calma 8 Nordeste 0 -- -- 88
2018-01-15 20:00:00 4.3 2 Nordeste 10 Nordeste 0 -- -- 79
2018-01-15 19:00:00 4.8 5 Nordeste 11 Norte 0 -- -- 77
2018-01-15 18:00:00 7.9 3 Norte 16 Nordeste 0 -- -- 63
2018-01-15 17:00:00 9.6 11 Nordeste 19 Nordeste 0.2 -- -- 54
2018-01-15 16:00:00 10.1 9 Nordeste 18 Nordeste 0 -- -- 56
2018-01-15 15:00:00 9.7 9 Nordeste 20 Nordeste 0 -- -- 57
2018-01-15 14:00:00 9 10 Este 23 Nordeste 0 -- -- 58
2018-01-15 13:00:00 8.3 5 Nordeste 25 Este 0 -- -- 65
2018-01-15 12:00:00 6.6 10 Este 22 Este 0 -- -- 68
2018-01-15 11:00:00 5.5 7 Este 21 Este 0 -- -- 72
2018-01-15 10:00:00 3.9 4 Nordeste 12 Nordeste 0 -- -- 80
2018-01-15 09:00:00 1.4 2 Norte 15 Norte 0 -- -- 87
2018-01-15 08:00:00 1 3 Noroeste 13 Nordeste 0 -- -- 89
2018-01-15 07:00:00 0.8 0 Calma 12 Sudoeste 0 -- -- 90
2018-01-15 06:00:00 1.9 0 Calma 13 Norte 0.2 -- -- 87
2018-01-15 05:00:00 2.1 2 Norte 10 Oeste 0 -- -- 85
2018-01-15 04:00:00 2.2 3 Oeste 15 Nordeste 0 -- -- 87
2018-01-15 03:00:00 2.2 3 Norte 12 Noroeste 0 -- -- 91
2018-01-15 02:00:00 2.9 4 Noroeste 12 Norte 0 -- -- 87
2018-01-15 01:00:00 3.2 4 Nordeste 15 Este 0 -- -- 86
2018-01-15 00:00:00 3.3 2 Norte 12 Norte 0 -- -- 88
2018-01-14 23:00:00 2.5 0 Calma 12 Norte 0 -- -- 92
2018-01-14 22:00:00 3 3 Norte 10 Noroeste 0 -- -- 91
2018-01-14 21:00:00 2.6 4 Noroeste 9 Noroeste 0 -- -- 93
2018-01-14 20:00:00 2.9 2 Nordeste 6 Noroeste 0.2 -- -- 92
2018-01-14 19:00:00 3.7 3 Nordeste 10 Nordeste 0 -- -- 91
2018-01-14 18:00:00 4.6 3 Oeste 9 Oeste 0 -- -- 89
2018-01-14 17:00:00 5.3 4 Oeste 15 Noroeste 0 -- -- 87
2018-01-14 16:00:00 6 8 Noroeste 14 Oeste 0.2 -- -- 84
2018-01-14 15:00:00 5.2 6 Oeste 10 Oeste 0 -- -- 90
2018-01-14 14:00:00 4.5 2 Sudoeste 4 Oeste 0.4 -- -- 91
2018-01-14 13:00:00 4.3 0 Calma 5 Oeste 2.4 -- -- 88
2018-01-14 12:00:00 4.6 0 Calma 4 Sur 0.4 -- -- 94
2018-01-14 11:00:00 4.4 0 Calma 4 Sudeste 0.4 -- -- 96
2018-01-14 10:00:00 4.1 0 Calma 8 Sudeste 0.2 -- -- 96
2018-01-14 09:00:00 3.9 3 Sudeste 8 Sudeste 0 -- -- 96
2018-01-14 08:00:00 3.7 0 Calma 4 Sudeste 0.2 -- -- 96
2018-01-14 07:00:00 3.5 2 Este 4 Este 0 -- -- 95
2018-01-14 06:00:00 4 3 Nordeste 14 Oeste 0.4 -- -- 91
2018-01-14 05:00:00 4.5 0 Calma 11 Sur 0 -- -- 93
2018-01-14 04:00:00 5 6 Sudoeste 14 Sudoeste 0 -- -- 89
2018-01-14 03:00:00 4.8 4 Oeste 15 Sudoeste 0 -- -- 89
2018-01-14 02:00:00 4.6 0 Calma 9 Sudoeste 0 -- -- 91
2018-01-14 01:00:00 4.8 3 Oeste 14 Oeste 0 -- -- 91
2018-01-14 00:00:00 4.9 0 Calma 21 Sudeste 0 -- -- 93
2018-01-13 23:00:00 5.1 6 Oeste 17 Noroeste 0 -- -- 90
2018-01-13 22:00:00 5 0 Calma 6 Nordeste 0 -- -- 88
2018-01-13 21:00:00 5.7 2 Oeste 23 Sudoeste 0 -- -- 87
2018-01-13 20:00:00 5.9 8 Sudoeste 25 Oeste 0.2 -- -- 89
2018-01-13 19:00:00 5.9 8 Sudoeste 25 Oeste 0.2 -- -- 90
2018-01-13 18:00:00 5.3 9 Sudeste 46 Sur 0.4 -- -- 94
2018-01-13 17:00:00 4.7 5 Sur 14 Sudoeste 0.2 -- -- 94
2018-01-13 16:00:00 5 4 Este 21 Nordeste 1 -- -- 92
2018-01-13 15:00:00 5.2 4 Sur 33 Sudoeste 1 -- -- 87
2018-01-13 14:00:00 5.8 15 Sudoeste 27 Oeste 0 -- -- 80
2018-01-13 13:00:00 7.2 8 Sur 19 Oeste 0 -- -- 74
2018-01-13 12:00:00 6.9 12 Sudoeste 27 Sudoeste 0 -- -- 71
2018-01-13 11:00:00 4.7 0 Calma 5 Sudoeste 0 -- -- 83
2018-01-13 10:00:00 2.8 0 Calma 4 Oeste 0 -- -- 92
2018-01-13 09:00:00 1.1 0 Calma 4 Nordeste 0 -- -- 93
2018-01-13 08:00:00 1 0 Calma 5 Nordeste 0 -- -- 91
2018-01-13 07:00:00 1.1 0 Calma 6 Nordeste 0 -- -- 91
2018-01-13 06:00:00 1.3 0 Calma 9 Nordeste 0 -- -- 92
2018-01-13 05:00:00 1.3 0 Calma 6 Nordeste 0 -- -- 92
2018-01-13 04:00:00 1.3 0 Calma 8 Nordeste 0 -- -- 92
2018-01-13 03:00:00 1.1 0 Calma 5 Nordeste 0 -- -- 95
2018-01-13 02:00:00 0.9 0 Calma 2 Nordeste 0 -- -- 96
2018-01-13 01:00:00 0.2 0 Calma 3 Nordeste 0 -- -- 95
2018-01-13 00:00:00 -0.1 0 Calma 4 Este 0 -- -- 94
2018-01-12 23:00:00 0.3 0 Calma 3 Nordeste 0 -- -- 92
2018-01-12 22:00:00 1.1 0 Calma 4 Nordeste 0 -- -- 90
2018-01-12 21:00:00 2.4 0 Calma 6 Nordeste 0 -- -- 88
2018-01-12 20:00:00 3.5 0 Calma 4 Nordeste 0 -- -- 85
2018-01-12 19:00:00 4.9 0 Calma 6 Nordeste 0 -- -- 78
2018-01-12 18:00:00 8.4 0 Calma 5 Sudoeste 0 -- -- 70
2018-01-12 17:00:00 10.7 2 Sur 10 Sudoeste 0 -- -- 45
2018-01-12 16:00:00 11.6 5 Sur 12 Sudoeste 0 -- -- 44
2018-01-12 15:00:00 11.7 6 Sur 14 Sur 0 -- -- 48
2018-01-12 14:00:00 10.8 8 Sur 14 Sur 0 -- -- 52
2018-01-12 13:00:00 9.5 5 Sur 10 Sur 0 -- -- 56
2018-01-12 12:00:00 8 3 Sur 7 Sur 0 -- -- 63
2018-01-12 11:00:00 5.3 0 Calma 3 Este 0 -- -- 79
2018-01-12 10:00:00 0.9 0 Calma 4 Nordeste 0.2 -- -- 94
2018-01-12 09:00:00 -2 0 Calma 6 Este 0 -- -- 95
2018-01-12 08:00:00 -2 0 Calma 5 Este 0 -- -- 93
2018-01-12 07:00:00 -1.4 0 Calma 7 Nordeste 0 -- -- 91
2018-01-12 06:00:00 1.3 2 Sudeste 14 Norte 0 -- -- 81
2018-01-12 05:00:00 3 7 Noroeste 17 Noroeste 0 -- -- 76
2018-01-12 04:00:00 3.1 5 Norte 14 Noroeste 0 -- -- 76
2018-01-12 03:00:00 2.6 6 Norte 15 Norte 0 -- -- 79
2018-01-12 02:00:00 0.2 0 Calma 5 Oeste 0 -- -- 91
2018-01-12 01:00:00 0.6 0 Calma 6 Noroeste 0 -- -- 90
2018-01-12 00:00:00 1.7 5 Noroeste 9 Noroeste 0 -- -- 85
2018-01-11 23:00:00 1.2 0 Calma 9 Norte 0 -- -- 87
2018-01-11 22:00:00 2 3 Nordeste 10 Nordeste 0 -- -- 84
2018-01-11 21:00:00 3.2 4 Norte 11 Nordeste 0 -- -- 79
2018-01-11 20:00:00 4 4 Este 9 Nordeste 0 -- -- 74
2018-01-11 19:00:00 4.7 7 Este 13 Nordeste 0 -- -- 76
2018-01-11 18:00:00 6.4 4 Nordeste 22 Noroeste 0 -- -- 69
2018-01-11 17:00:00 8.1 4 Nordeste 18 Este 0 -- -- 66
2018-01-11 16:00:00 7.6 9 Norte 29 Noroeste 0 -- -- 71
2018-01-11 15:00:00 8.9 11 Oeste 33 Noroeste 0 -- -- 61
2018-01-11 14:00:00 8 9 Oeste 24 Oeste 0.2 -- -- 70
2018-01-11 13:00:00 6.8 6 Oeste 15 Oeste 0 -- -- 88
2018-01-11 12:00:00 5 2 Sur 5 Sudoeste 0 -- -- 98
2018-01-11 11:00:00 3.9 2 Este 5 Este 0.2 -- -- 97
2018-01-11 10:00:00 3.2 0 Calma 4 Sur 0 -- -- 97
2018-01-11 09:00:00 2.8 2 Sur 8 Sudeste 0 -- -- 97
2018-01-11 08:00:00 2.5 0 Calma 5 Sudeste 0 -- -- 97
2018-01-11 07:00:00 1.2 0 Calma 7 Nordeste 0 -- -- 97
2018-01-11 06:00:00 0.8 0 Calma 5 Este 0.2 -- -- 97
2018-01-11 05:00:00 0.7 2 Nordeste 3 Este 0 -- -- 96
2018-01-11 04:00:00 1.1 0 Calma 4 Nordeste 0 -- -- 94
2018-01-11 03:00:00 2.3 0 Calma 10 Nordeste 0.2 -- -- 91
2018-01-11 02:00:00 3.5 4 Nordeste 9 Nordeste 0 -- -- 89
2018-01-11 01:00:00 5.4 4 Nordeste 14 Norte 0 -- -- 84
2018-01-11 00:00:00 6.2 3 Noroeste 18 Oeste 0 -- -- 84
2018-01-10 23:00:00 6.9 9 Noroeste 22 Oeste 0.2 -- -- 81
2018-01-10 22:00:00 7.7 6 Noroeste 32 Noroeste 0 -- -- 82
2018-01-10 21:00:00 8.4 6 Oeste 36 Oeste 0.2 -- -- 84
2018-01-10 20:00:00 8.9 11 Oeste 37 Oeste 1.4 -- -- 90
2018-01-10 19:00:00 8.7 13 Sur 31 Sur 0 -- -- 91
2018-01-10 18:00:00 9.1 10 Sudoeste 33 Sur 0.2 -- -- 87
2018-01-10 17:00:00 10.1 12 Sur 30 Sur 0 -- -- 74
2018-01-10 16:00:00 10.1 12 Oeste 36 Sudoeste 0 -- -- 72
2018-01-10 15:00:00 10 10 Oeste 28 Noroeste 0 -- -- 74
2018-01-10 14:00:00 9 6 Norte 32 Oeste 0 -- -- 78
2018-01-10 13:00:00 7.7 3 Oeste 19 Sudoeste 0.2 -- -- 88
2018-01-10 12:00:00 7.1 7 Oeste 21 Sudoeste 0.2 -- -- 90
2018-01-10 11:00:00 6.9 5 Sudoeste 18 Sudoeste 0 -- -- 94
2018-01-10 10:00:00 6.8 8 Oeste 23 Oeste 0.2 -- -- 95
2018-01-10 09:00:00 6.3 0 Calma 7 Nordeste 0.2 -- -- 96
2018-01-10 08:00:00 6.3 3 Este 7 Nordeste 0 -- -- 98
2018-01-10 07:00:00 6.8 0 Calma 4 Oeste 0.2 -- -- 98
2018-01-10 06:00:00 6.6 2 Sudoeste 5 Sudoeste 0.2 -- -- 98
2018-01-10 05:00:00 6.7 3 Noroeste 6 Nordeste 0.2 -- -- 98
2018-01-10 04:00:00 6.3 0 Calma 7 Nordeste 0.8 -- -- 98
2018-01-10 03:00:00 6.3 0 Calma 9 Sur 0.2 -- -- 97
2018-01-10 02:00:00 6.2 3 Sur 8 Sudeste 0.2 -- -- 97
2018-01-10 01:00:00 6.1 3 Sudeste 10 Sudeste 0.4 -- -- 97
2018-01-10 00:00:00 6 0 Calma 13 Este 0.6 -- -- 97
2018-01-09 23:00:00 5.7 4 Sudeste 8 Este 1.8 -- -- 97
2018-01-09 22:00:00 5.5 3 Sur 12 Sur 0.8 -- -- 96
2018-01-09 21:00:00 5.5 3 Sudeste 12 Sudeste 0.8 -- -- 96
2018-01-09 20:00:00 5 6 Sur 19 Sudoeste 0.2 -- -- 95
2018-01-09 19:00:00 4.6 5 Sur 15 Sudoeste 0 -- -- 94
2018-01-09 18:00:00 4.6 7 Sur 13 Sudeste 0 -- -- 92
2018-01-09 17:00:00 4.5 4 Sur 12 Sudeste 0 -- -- 91
2018-01-09 16:00:00 4.3 4 Sur 14 Este 0 -- -- 90
2018-01-09 15:00:00 3.8 4 Sudeste 14 Este 0 -- -- 91
2018-01-09 14:00:00 3.5 5 Sudeste 15 Sudeste 0 -- -- 94
2018-01-09 13:00:00 3.2 5 Sur 10 Sur 0 -- -- 93
2018-01-09 12:00:00 2.7 5 Sur 10 Sur 0 -- -- 94
2018-01-09 11:00:00 1.5 0 Calma 4 Este 0 -- -- 98
2018-01-09 10:00:00 -0.6 0 Calma 2 Sudeste 0 -- -- 97
2018-01-09 09:00:00 -1.8 0 Calma 2 Nordeste 0 -- -- 97
2018-01-09 08:00:00 -2.4 0 Calma 3 Nordeste 0 -- -- 96
2018-01-09 07:00:00 -2.6 0 Calma 2 Este 0 -- -- 96
2018-01-09 06:00:00 -2.6 0 Calma 6 Este 0 -- -- 95
2018-01-09 05:00:00 -2.3 0 Calma 4 Este 0 -- -- 95
2018-01-09 04:00:00 -2.1 0 Calma 4 Nordeste 0 -- -- 95
2018-01-09 03:00:00 -1.8 0 Calma 3 Este 0 -- -- 95
2018-01-09 02:00:00 -1.6 0 Calma 3 Este 0 -- -- 94
2018-01-09 01:00:00 -1.2 0 Calma 5 Nordeste 0 -- -- 94
2018-01-09 00:00:00 -0.8 0 Calma 6 Nordeste 0 -- -- 93
2018-01-08 23:00:00 -0.3 0 Calma 5 Nordeste 0 -- -- 91
2018-01-08 22:00:00 1 0 Calma 10 Oeste 0 -- -- 88
2018-01-08 21:00:00 2.4 3 Norte 13 Noroeste 0 -- -- 83
2018-01-08 20:00:00 3 2 Norte 7 Norte 0 -- -- 84
2018-01-08 19:00:00 4.7 3 Nordeste 12 Norte 0 -- -- 79
2018-01-08 18:00:00 5.6 5 Nordeste 14 Este 0 -- -- 75
2018-01-08 17:00:00 6.3 4 Nordeste 13 Nordeste 0 -- -- 69
2018-01-08 16:00:00 6.6 6 Nordeste 15 Nordeste 0 -- -- 68
2018-01-08 15:00:00 6.9 7 Este 13 Nordeste 0 -- -- 70
2018-01-08 14:00:00 8.6 4 Sur 21 Sur 0 -- -- 66
2018-01-08 13:00:00 6.6 4 Oeste 14 Este 0 -- -- 73
2018-01-08 12:00:00 6.3 6 Nordeste 13 Nordeste 0 -- -- 76
2018-01-08 11:00:00 4 0 Calma 8 Nordeste 0.2 -- -- 86
2018-01-08 10:00:00 2.2 0 Calma 4 Nordeste 0 -- -- 97
2018-01-08 09:00:00 2 0 Calma 3 Nordeste 0 -- -- 97
2018-01-08 08:00:00 1.9 3 Sur 6 Sudoeste 0 -- -- 97
2018-01-08 07:00:00 1.7 0 Calma 3 Noroeste 0 -- -- 97
2018-01-08 06:00:00 1.6 0 Calma 2 Sudoeste 0.2 -- -- 96
2018-01-08 05:00:00 1.9 0 Calma 3 Sudeste 0 -- -- 95
2018-01-08 04:00:00 2 2 Sudeste 8 Sudoeste 0 -- -- 95
2018-01-08 03:00:00 1.9 3 Sudeste 7 Sur 0.2 -- -- 96
2018-01-08 02:00:00 1.8 0 Calma 5 Sur 0 -- -- 95
2018-01-08 01:00:00 1.8 0 Calma 9 Sudeste 0 -- -- 95
2018-01-08 00:00:00 1.8 0 Calma 6 Sudeste 0 -- -- 95
2018-01-07 23:00:00 1.7 0 Calma 6 Este 0.2 -- -- 96
2018-01-07 22:00:00 1.6 3 Sudeste 6 Sudeste 0 -- -- 96
2018-01-07 21:00:00 1.4 0 Calma 7 Sudeste 0.2 -- -- 96
2018-01-07 20:00:00 1.2 2 Sur 6 Sur 0 -- -- 96
2018-01-07 19:00:00 1.3 3 Sudeste 8 Sudeste 0.2 -- -- 95
2018-01-07 18:00:00 1.5 3 Sur 12 Sur 0 -- -- 94
2018-01-07 17:00:00 1.7 5 Sur 11 Sur 0 -- -- 93
2018-01-07 16:00:00 1.7 6 Sur 16 Sudeste 0 -- -- 95
2018-01-07 15:00:00 1.5 5 Sur 11 Sur 0.2 -- -- 95
2018-01-07 14:00:00 1.2 4 Sur 9 Sur 0 -- -- 96
2018-01-07 13:00:00 1 5 Sur 11 Sur 0 -- -- 95
2018-01-07 12:00:00 0.9 5 Sur 12 Sur 0 -- -- 95
2018-01-07 11:00:00 0.9 5 Sudeste 10 Sur 0 -- -- 95
2018-01-07 10:00:00 0.7 4 Sur 8 Sur 0.2 -- -- 95
2018-01-07 09:00:00 0.5 3 Sudeste 9 Sudeste 0 -- -- 95
2018-01-07 08:00:00 0.4 3 Sur 8 Sudeste 0 -- -- 94
2018-01-07 07:00:00 0.5 3 Sur 6 Sur 0 -- -- 93
2018-01-07 06:00:00 0.3 3 Sur 8 Sudeste 0 -- -- 92
2018-01-07 05:00:00 -0.1 4 Sudeste 10 Sudeste 0 -- -- 95
2018-01-07 04:00:00 -1.1 0 Calma 5 Nordeste 0 -- -- 94
2018-01-07 03:00:00 -0.2 0 Calma 11 Norte 0 -- -- 91
2018-01-07 02:00:00 0.5 3 Nordeste 8 Sudoeste 0 -- -- 90
2018-01-07 01:00:00 1.5 2 Norte 11 Oeste 0.2 -- -- 87
2018-01-07 00:00:00 0.8 0 Calma 8 Norte 0 -- -- 89
2018-01-06 23:00:00 1.9 4 Norte 14 Oeste 0.2 -- -- 83
2018-01-06 22:00:00 3.3 4 Nordeste 24 Oeste 0 -- -- 76
2018-01-06 21:00:00 4 5 Oeste 20 Oeste 0.2 -- -- 79
2018-01-06 20:00:00 4.3 4 Oeste 12 Oeste 0 -- -- 81
2018-01-06 19:00:00 4.4 3 Noroeste 11 Oeste 0.2 -- -- 83
2018-01-06 18:00:00 4.7 6 Oeste 21 Oeste 0 -- -- 83
2018-01-06 17:00:00 4.8 3 Sudoeste 15 Noroeste 0.2 -- -- 87
2018-01-06 16:00:00 4.6 4 Este 17 Este 0.2 -- -- 91
2018-01-06 15:00:00 4.3 4 Este 15 Oeste 0.4 -- -- 93
2018-01-06 14:00:00 3.7 5 Oeste 14 Oeste 0.4 -- -- 93
2018-01-06 13:00:00 3.4 3 Sudeste 12 Oeste 0.4 -- -- 93
2018-01-06 12:00:00 3.2 4 Noroeste 14 Oeste 0.2 -- -- 93
2018-01-06 11:00:00 2.8 4 Oeste 11 Noroeste 0.4 -- -- 94
2018-01-06 10:00:00 2.4 3 Oeste 11 Noroeste 0.8 -- -- 94
2018-01-06 09:00:00 2.5 0 Calma 6 Noroeste 1 -- -- 94
2018-01-06 08:00:00 2.7 2 Sudoeste 10 Este 1.2 -- -- 94
2018-01-06 07:00:00 3.2 3 Nordeste 8 Nordeste 2.8 -- -- 91
2018-01-06 06:00:00 4.3 2 Nordeste 14 Oeste 3.2 -- -- 93
2018-01-06 05:00:00 5.5 3 Nordeste 20 Sudeste 3.4 -- -- 91
2018-01-06 04:00:00 7.2 12 Sur 27 Sudeste 9 -- -- 89
2018-01-06 03:00:00 7.8 7 Sudeste 19 Sudeste 0.6 -- -- 95
2018-01-06 02:00:00 7.9 8 Sur 18 Sudeste 0.6 -- -- 94
2018-01-06 01:00:00 7.8 8 Este 23 Sudeste 0.8 -- -- 95
2018-01-06 00:00:00 7.9 8 Sudeste 22 Sur 0.4 -- -- 95
2018-01-05 23:00:00 8.2 8 Sur 29 Sur 0.6 -- -- 95
2018-01-05 22:00:00 8.5 12 Sur 28 Sur 0.2 -- -- 94
2018-01-05 21:00:00 9 13 Sur 27 Sur 0 -- -- 88
2018-01-05 20:00:00 8.8 12 Sur 22 Sur 0 -- -- 91
2018-01-05 19:00:00 8.6 7 Sur 20 Sudeste 0 -- -- 93
2018-01-05 18:00:00 8.5 5 Sur 15 Sudeste 0 -- -- 93
2018-01-05 17:00:00 9 8 Sur 21 Sur 0 -- -- 87
2018-01-05 16:00:00 9.6 11 Sur 35 Sudoeste 0 -- -- 82
2018-01-05 15:00:00 10.3 19 Sudoeste 35 Sudoeste 0 -- -- 76
2018-01-05 14:00:00 10.1 17 Sudoeste 44 Sudoeste 0 -- -- 75
2018-01-05 13:00:00 9.6 16 Sudoeste 29 Sudoeste 0 -- -- 77
2018-01-05 12:00:00 9.2 18 Sudoeste 31 Sudoeste 0 -- -- 79
2018-01-05 11:00:00 9 20 Sudoeste 47 Sudoeste 0 -- -- 80
2018-01-05 10:00:00 8.7 16 Sudoeste 28 Sudoeste 0 -- -- 86
2018-01-05 09:00:00 8.6 8 Sudeste 21 Sudoeste 0 -- -- 85
2018-01-05 08:00:00 8.8 10 Sudoeste 30 Sur 0 -- -- 87
2018-01-05 07:00:00 9 11 Sur 28 Sur 0 -- -- 85
2018-01-05 06:00:00 9 7 Sur 25 Sudoeste 0 -- -- 90
2018-01-05 05:00:00 9.1 3 Sudeste 21 Sudoeste 0 -- -- 90
2018-01-05 04:00:00 9.3 3 Este 17 Nordeste 0 -- -- 90
2018-01-05 03:00:00 9.6 4 Noroeste 17 Sudoeste 0 -- -- 83
2018-01-05 02:00:00 9.3 8 Noroeste 18 Sudoeste 0 -- -- 89
2018-01-05 01:00:00 9.3 3 Sudeste 8 Sudeste 0 -- -- 94
2018-01-05 00:00:00 9.5 3 Sudeste 8 Sudoeste 0 -- -- 94
2018-01-04 23:00:00 9.6 3 Sur 10 Sudeste 0 -- -- 93
2018-01-04 22:00:00 10.1 3 Sudoeste 8 Sudeste 0 -- -- 91
2018-01-04 21:00:00 10.3 0 Calma 3 Nordeste 0 -- -- 89
2018-01-04 20:00:00 10.5 0 Calma 16 Sudoeste 0 -- -- 86
2018-01-04 19:00:00 10.5 7 Oeste 14 Oeste 0 -- -- 87
2018-01-04 18:00:00 10.4 4 Oeste 14 Sudoeste 0 -- -- 90
2018-01-04 17:00:00 11 9 Sudoeste 19 Sudoeste 0 -- -- 86
2018-01-04 16:00:00 11.6 8 Oeste 16 Sudoeste 0 -- -- 87
2018-01-04 15:00:00 12.3 4 Oeste 12 Este 0 -- -- 83
2018-01-04 14:00:00 12.8 5 Oeste 21 Sudoeste 0 -- -- 82
2018-01-04 13:00:00 11.9 8 Sudoeste 14 Oeste 0 -- -- 87
2018-01-04 12:00:00 10.8 3 Sur 6 Sudeste 0 -- -- 93
2018-01-04 11:00:00 9.8 0 Calma 4 Sudoeste 0 -- -- 95
2018-01-04 10:00:00 9.2 0 Calma 2 Sudoeste 0 -- -- 96
2018-01-04 09:00:00 8.8 0 Calma 0 Calma 0 -- -- 96
2018-01-04 08:00:00 8.7 0 Calma 4 Sudeste 0 -- -- 96
2018-01-04 07:00:00 8.8 3 Sudeste 8 Sudeste 0 -- -- 96
2018-01-04 06:00:00 8.9 0 Calma 4 Norte 0 -- -- 95
2018-01-04 05:00:00 8.9 0 Calma 4 Sudoeste 0 -- -- 94
2018-01-04 04:00:00 8.8 0 Calma 4 Noroeste 0 -- -- 94
2018-01-04 03:00:00 8.8 0 Calma 5 Sur 0 -- -- 94
2018-01-04 02:00:00 8.9 2 Sur 5 Sur 0 -- -- 93
2018-01-04 01:00:00 9.6 0 Calma 15 Oeste 0 -- -- 91
2018-01-04 00:00:00 9.8 4 Sur 15 Oeste 0 -- -- 94
2018-01-03 23:00:00 8.4 2 Nordeste 8 Noroeste 0 -- -- 95
2018-01-03 22:00:00 7.9 3 Oeste 6 Sudoeste 0 -- -- 96
2018-01-03 21:00:00 6.8 0 Calma 4 Este 0 -- -- 94
2018-01-03 20:00:00 7.6 0 Calma 4 Nordeste 0 -- -- 92
2018-01-03 19:00:00 8.6 0 Calma 8 Nordeste 0 -- -- 90
2018-01-03 18:00:00 10.4 2 Norte 15 Oeste 0 -- -- 86
2018-01-03 17:00:00 11.9 7 Oeste 19 Oeste 0 -- -- 82
2018-01-03 16:00:00 12 7 Oeste 18 Oeste 0 -- -- 83
2018-01-03 15:00:00 11.4 2 Sur 9 Sudoeste 0 -- -- 85
2018-01-03 14:00:00 10.6 3 Sudeste 8 Sudeste 0 -- -- 89
2018-01-03 13:00:00 9.7 4 Sudeste 9 Sudeste 0 -- -- 92
2018-01-03 12:00:00 9.1 3 Sur 5 Sudoeste 0 -- -- 94
2018-01-03 11:00:00 8.7 0 Calma 4 Noroeste 0 -- -- 94
2018-01-03 10:00:00 8 0 Calma 4 Sudoeste 0 -- -- 95
2018-01-03 09:00:00 7.7 0 Calma 5 Sudeste 0 -- -- 93
2018-01-03 08:00:00 7.9 0 Calma 14 Sudeste 0 -- -- 92
2018-01-03 07:00:00 9.7 4 Sudoeste 10 Noroeste 0 -- -- 92
2018-01-03 06:00:00 9.7 4 Oeste 13 Oeste 0 -- -- 93
2018-01-03 05:00:00 7.8 0 Calma 3 Este 0 -- -- 92
2018-01-03 04:00:00 7.9 0 Calma 6 Sur 0 -- -- 92
2018-01-03 03:00:00 9.1 0 Calma 5 Nordeste 0 -- -- 92
2018-01-03 02:00:00 9.3 0 Calma 9 Noroeste 0 -- -- 92
2018-01-03 01:00:00 9.4 3 Este 12 Noroeste 0 -- -- 91
2018-01-03 00:00:00 9.1 3 Noroeste 12 Oeste 0 -- -- 91
2018-01-02 23:00:00 9.1 4 Sudoeste 9 Nordeste 0 -- -- 91
2018-01-02 22:00:00 7.8 0 Calma 6 Nordeste 0 -- -- 93
2018-01-02 21:00:00 7.5 0 Calma 7 Sudeste 0 -- -- 91
2018-01-02 20:00:00 6.9 0 Calma 5 Norte 0 -- -- 88
2018-01-02 19:00:00 7.9 0 Calma 4 Nordeste 0 -- -- 85
2018-01-02 18:00:00 10.3 0 Calma 15 Oeste 0 -- -- 77
2018-01-02 17:00:00 13.5 5 Oeste 14 Oeste 0 -- -- 65
2018-01-02 16:00:00 13.7 6 Oeste 17 Oeste 0 -- -- 63
2018-01-02 15:00:00 13.1 7 Oeste 18 Oeste 0 -- -- 66
2018-01-02 14:00:00 12.1 9 Sudoeste 19 Sudoeste 0 -- -- 71
2018-01-02 13:00:00 10.4 4 Noroeste 15 Noroeste 0 -- -- 74
2018-01-02 12:00:00 8.2 4 Norte 10 Norte 0 -- -- 84
2018-01-02 11:00:00 6.4 3 Sudeste 7 Sudeste 0 -- -- 97
2018-01-02 10:00:00 5.3 2 Sudoeste 5 Oeste 0 -- -- 97
2018-01-02 09:00:00 4.1 0 Calma 5 Nordeste 0 -- -- 97
2018-01-02 08:00:00 2.8 0 Calma 4 Nordeste 0 -- -- 97
2018-01-02 07:00:00 1.5 0 Calma 5 Este 0 -- -- 97
2018-01-02 06:00:00 1.7 0 Calma 2 Nordeste 0 -- -- 95
2018-01-02 05:00:00 2.2 0 Calma 2 Oeste 0 -- -- 93
2018-01-02 04:00:00 3.7 0 Calma 4 Nordeste 0 -- -- 94
2018-01-02 03:00:00 3.6 0 Calma 6 Sur 0 -- -- 91
2018-01-02 02:00:00 4.9 0 Calma 8 Sudeste 0 -- -- 88
2018-01-02 01:00:00 6.8 2 Sudoeste 10 Noroeste 0 -- -- 89
2018-01-02 00:00:00 6 3 Sudoeste 7 Sur 0 -- -- 90
2018-01-01 23:00:00 5.9 2 Este 9 Norte 0 -- -- 91
2018-01-01 22:00:00 5.1 0 Calma 10 Nordeste 0 -- -- 87
2018-01-01 21:00:00 5.5 2 Nordeste 5 Nordeste 0 -- -- 84
2018-01-01 20:00:00 6.5 2 Nordeste 7 Este 0 -- -- 72
2018-01-01 19:00:00 7.3 4 Este 12 Nordeste 0 -- -- 65
2018-01-01 18:00:00 9.2 5 Noroeste 15 Noroeste 0 -- -- 58
2018-01-01 17:00:00 11.5 6 Oeste 21 Oeste 0 -- -- 49
2018-01-01 16:00:00 12.7 6 Oeste 21 Oeste 0 -- -- 39
2018-01-01 15:00:00 12.5 6 Oeste 24 Oeste 0 -- -- 40
2018-01-01 14:00:00 12.3 9 Sudoeste 23 Sur 0 -- -- 38
2018-01-01 13:00:00 11.2 7 Sudeste 13 Sudeste 0 -- -- 56
2018-01-01 12:00:00 10.4 3 Sur 8 Sur 0 -- -- 61
2018-01-01 11:00:00 6.9 0 Calma 3 Sudoeste 0.6 -- -- 84
2018-01-01 10:00:00 2 0 Calma 5 Nordeste 0.2 -- -- 96
2018-01-01 09:00:00 -0.5 0 Calma 2 Oeste 0 -- -- 95
2018-01-01 08:00:00 0.1 0 Calma 3 Este 0 -- -- 95
2018-01-01 07:00:00 0.5 2 Nordeste 7 Nordeste 0 -- -- 92
2018-01-01 06:00:00 2.7 0 Calma 8 Norte 0 -- -- 86
2018-01-01 05:00:00 3.6 3 Nordeste 11 Norte 0 -- -- 86
2018-01-01 04:00:00 3.9 7 Nordeste 10 Norte 0 -- -- 92
2018-01-01 03:00:00 2.7 0 Calma 2 Nordeste 0 -- -- 93
2018-01-01 02:00:00 4.2 0 Calma 9 Nordeste 0 -- -- 91
2018-01-01 01:00:00 6 3 Este 13 Este 0.2 -- -- 84
2018-01-01 00:00:00 6.4 6 Este 14 Nordeste 0 -- -- 88
2017-12-31 23:00:00 6.8 4 Este 12 Nordeste 0 -- -- 89
2017-12-31 22:00:00 7.3 6 Nordeste 12 Este 0 -- -- 88
2017-12-31 21:00:00 9 4 Nordeste 33 Oeste 0 -- -- 84
2017-12-31 20:00:00 9.8 8 Oeste 24 Sudoeste 1.2 -- -- 91
2017-12-31 19:00:00 9.3 6 Este 13 Sudeste 0.2 -- -- 94
2017-12-31 18:00:00 9.5 4 Sur 16 Sudeste 0.4 -- -- 92
2017-12-31 17:00:00 11 3 Sudeste 23 Oeste 0 -- -- 74
2017-12-31 16:00:00 11 4 Sudeste 24 Oeste 0 -- -- 73
2017-12-31 15:00:00 10.8 14 Sudoeste 39 Oeste 0 -- -- 71
2017-12-31 14:00:00 10.5 14 Oeste 32 Oeste 0 -- -- 80
2017-12-31 13:00:00 10.9 14 Sur 35 Sudoeste 0 -- -- 86
2017-12-31 12:00:00 10.5 9 Sur 25 Sudoeste 0 -- -- 92
2017-12-31 11:00:00 10 9 Sur 20 Sur 0 -- -- 92
2017-12-31 10:00:00 9.5 7 Oeste 17 Sudoeste 0 -- -- 98
2017-12-31 09:00:00 7.7 4 Sur 8 Este 0.2 -- -- 99
2017-12-31 08:00:00 6.3 0 Calma 6 Nordeste 0 -- -- 98
2017-12-31 07:00:00 5.1 0 Calma 4 Este 0 -- -- 98
2017-12-31 06:00:00 4.8 2 Nordeste 4 Nordeste 0 -- -- 98
2017-12-31 05:00:00 5.1 0 Calma 3 Nordeste 0 -- -- 97
2017-12-31 04:00:00 5.3 0 Calma 2 Nordeste 0 -- -- 97
2017-12-31 03:00:00 4.8 0 Calma 2 Nordeste 0 -- -- 97
2017-12-31 02:00:00 4.9 0 Calma 2 Este 0 -- -- 97
2017-12-31 01:00:00 5.1 0 Calma 2 Nordeste 0 -- -- 97